Time;durP1;ratioP1;P1;durP2;ratioP2;P2;SDS_P1;SDS_P2;PMS_P1;PMS_P2;Temp;Humidity;BMP_temperature;BMP_pressure;BME280_temperature;BME280_humidity;BME280_pressure;Samples;Min_cycle;Max_cycle;Signal;HPM_P1;HPM_P2
2021/06/09 00:01:39;;;;;;;3.75;1.95;;;;;;;32.69;19.70;98361.19;5066307;28;20039;-89
2021/06/09 00:04:05;;;;;;;4.07;2.47;;;;;;;32.41;20.41;98371.16;5066215;28;20029;-89
2021/06/09 00:06:32;;;;;;;3.75;2.10;;;;;;;32.33;20.58;98372.78;5064353;28;20037;-89
2021/06/09 00:08:58;;;;;;;2.83;2.25;;;;;;;32.64;20.10;98359.00;5062569;28;20523;-88
2021/06/09 00:11:24;;;;;;;3.10;1.85;;;;;;;32.93;20.03;98366.81;5059707;28;20495;-89
2021/06/09 00:13:50;;;;;;;5.57;1.95;;;;;;;32.38;19.96;98369.28;5070085;28;20032;-89
2021/06/09 00:16:19;;;;;;;4.25;2.42;;;;;;;32.36;20.08;98360.44;5064585;28;20044;-89
2021/06/09 00:18:45;;;;;;;3.63;3.00;;;;;;;32.40;20.29;98369.56;5063846;28;20036;-88
2021/06/09 00:21:12;;;;;;;4.60;2.33;;;;;;;31.80;21.63;98367.69;5079050;28;20035;-89
2021/06/09 00:23:38;;;;;;;2.75;2.20;;;;;;;32.17;20.39;98370.34;5064198;28;20033;-89
2021/06/09 00:26:05;;;;;;;3.13;2.03;;;;;;;32.59;19.87;98357.63;5071195;28;20044;-88
2021/06/09 00:28:33;;;;;;;4.35;2.33;;;;;;;32.99;19.52;98367.69;5069974;28;20484;-88
2021/06/09 00:31:00;;;;;;;4.75;2.42;;;;;;;32.71;20.04;98367.16;5062013;28;20051;-88
2021/06/09 00:33:26;;;;;;;2.28;1.63;;;;;;;32.45;20.44;98371.75;5069337;28;20036;-88
2021/06/09 00:35:58;;;;;;;3.42;1.75;;;;;;;32.70;19.69;98362.72;5064839;28;20040;-89
2021/06/09 00:38:25;;;;;;;3.28;2.53;;;;;;;33.01;19.64;98362.31;5070955;28;20037;-89
2021/06/09 00:40:52;;;;;;;3.17;2.35;;;;;;;32.85;20.00;98365.63;5058717;28;20037;-89
2021/06/09 00:43:20;;;;;;;3.25;2.33;;;;;;;32.50;19.90;98374.75;5061537;28;20512;-88
2021/06/09 00:45:55;;;;;;;1.90;1.67;;;;;;;32.64;19.76;98370.38;5065197;28;20036;-87
2021/06/09 00:48:25;;;;;;;2.75;2.13;;;;;;;32.97;19.48;98365.34;5064481;28;20029;-88
2021/06/09 00:50:56;;;;;;;4.40;2.83;;;;;;;32.47;20.78;98370.00;5058871;28;20431;-88
2021/06/09 00:53:32;;;;;;;3.40;1.70;;;;;;;32.36;20.26;98360.44;5070209;28;20052;-88
2021/06/09 00:56:02;;;;;;;3.10;1.85;;;;;;;32.73;20.02;98367.44;5061637;28;20032;-88
2021/06/09 00:58:28;;;;;;;3.35;2.13;;;;;;;32.80;20.40;98364.22;5062713;28;20052;-89
2021/06/09 01:00:55;;;;;;;2.72;2.05;;;;;;;32.63;20.17;98363.91;5064297;28;20090;-88
2021/06/09 01:03:22;;;;;;;2.95;1.92;;;;;;;32.77;19.89;98361.59;5063118;28;20021;-89
2021/06/09 01:05:48;;;;;;;3.47;1.95;;;;;;;32.95;20.15;98362.22;5061394;28;20024;-89
2021/06/09 01:08:16;;;;;;;2.90;1.70;;;;;;;32.99;19.92;98356.31;5062888;28;20028;-88
2021/06/09 01:10:50;;;;;;;1.83;1.58;;;;;;;33.28;19.42;98356.38;5060328;28;20029;-89
2021/06/09 01:13:27;;;;;;;2.42;1.73;;;;;;;33.56;19.26;98354.78;5060966;28;20495;-88
2021/06/09 01:15:53;;;;;;;2.53;1.83;;;;;;;33.84;19.16;98360.97;5059503;28;20033;-89
2021/06/09 01:18:19;;;;;;;2.17;1.63;;;;;;;34.01;18.37;98359.91;5069013;28;20044;-89
2021/06/09 01:20:47;;;;;;;2.42;1.60;;;;;;;34.08;18.70;98350.19;5055906;28;20523;-89
2021/06/09 01:23:13;;;;;;;3.28;2.00;;;;;;;33.99;19.52;98361.69;5060955;28;20119;-89
2021/06/09 01:25:40;;;;;;;3.05;2.30;;;;;;;33.44;19.42;98356.63;5064808;28;20897;-88
2021/06/09 01:28:07;;;;;;;3.20;1.98;;;;;;;33.62;19.22;98355.69;5062603;28;20025;-88
2021/06/09 01:30:35;;;;;;;3.20;2.13;;;;;;;33.87;19.16;98355.03;5066265;28;20033;-88
2021/06/09 01:33:02;;;;;;;2.78;2.47;;;;;;;33.60;19.38;98349.69;5058073;28;20021;-87
2021/06/09 01:35:28;;;;;;;3.03;2.15;;;;;;;33.64;19.52;98353.13;5053386;28;20116;-88
2021/06/09 01:37:54;;;;;;;2.17;1.85;;;;;;;33.67;19.66;98354.22;5055647;28;20485;-88
2021/06/09 01:40:23;;;;;;;2.78;1.65;;;;;;;33.62;19.47;98349.19;5065062;28;20075;-88
2021/06/09 01:42:51;;;;;;;2.63;2.10;;;;;;;33.83;19.05;98353.69;5081751;28;20102;-88
2021/06/09 01:45:26;;;;;;;2.17;1.70;;;;;;;34.03;18.90;98351.69;5062940;28;20028;-88
2021/06/09 01:47:53;;;;;;;3.42;2.17;;;;;;;33.71;20.07;98354.78;5062091;28;20507;-88
2021/06/09 01:50:21;;;;;;;4.15;1.70;;;;;;;33.16;19.96;98352.56;5061678;28;20032;-88
2021/06/09 01:52:48;;;;;;;2.17;1.63;;;;;;;33.49;19.43;98355.19;5057524;28;20029;-88
2021/06/09 01:55:16;;;;;;;2.70;1.63;;;;;;;33.84;18.97;98355.25;5052788;28;20025;-87
2021/06/09 01:57:43;;;;;;;3.60;1.65;;;;;;;33.78;19.56;98349.47;5061988;28;20107;-87
2021/06/09 02:00:32;;;;;;;2.63;1.63;;;;;;;33.77;19.85;98347.88;5065615;28;20040;-88
2021/06/09 02:02:59;;;;;;;3.05;1.80;;;;;;;34.12;19.10;98345.09;5057578;28;20033;-88
2021/06/09 02:05:31;;;;;;;3.95;2.05;;;;;;;33.83;19.52;98347.97;5059143;28;20045;-88
2021/06/09 02:08:00;;;;;;;2.45;1.67;;;;;;;33.32;20.16;98345.56;5052774;28;20125;-88
2021/06/09 02:10:27;;;;;;;3.97;1.52;;;;;;;32.94;20.51;98345.63;5055563;28;20073;-88
2021/06/09 02:13:09;;;;;;;5.55;2.13;;;;;;;32.90;20.49;98354.34;5068312;28;20501;-87
2021/06/09 02:15:36;;;;;;;2.30;1.85;;;;;;;33.40;19.61;98349.56;5066924;28;20060;-88
2021/06/09 02:18:14;;;;;;;2.15;1.75;;;;;;;33.66;19.03;98344.06;5057046;28;20032;-89
2021/06/09 02:20:49;;;;;;;1.75;1.63;;;;;;;33.86;18.85;98350.63;5055449;28;20051;-88
2021/06/09 02:23:19;;;;;;;2.85;1.75;;;;;;;33.58;19.12;98345.78;5061372;28;20067;-89
2021/06/09 02:25:52;;;;;;;2.08;1.77;;;;;;;33.63;19.48;98336.53;5059175;28;20116;-88
2021/06/09 02:28:22;;;;;;;2.00;1.67;;;;;;;33.57;19.36;98341.34;5052621;28;20037;-88
2021/06/09 02:30:49;;;;;;;4.55;1.60;;;;;;;32.96;19.71;98349.53;5059840;28;20414;-88
2021/06/09 02:33:19;;;;;;;2.45;1.58;;;;;;;32.98;20.09;98349.06;5057149;28;20044;-88
2021/06/09 02:35:46;;;;;;;4.13;1.80;;;;;;;33.17;19.68;98347.63;5058997;28;20036;-87
2021/06/09 02:38:15;;;;;;;2.60;1.83;;;;;;;33.22;19.43;98336.34;5053064;28;20538;-88
2021/06/09 02:40:42;;;;;;;1.92;1.50;;;;;;;33.13;19.88;98338.50;5057115;28;20043;-88
2021/06/09 02:43:10;;;;;;;4.38;1.85;;;;;;;32.72;20.61;98337.47;5052401;28;20018;-87
2021/06/09 02:45:37;;;;;;;1.92;1.48;;;;;;;32.50;20.26;98340.63;5052289;28;20029;-88
2021/06/09 02:48:07;;;;;;;1.85;1.25;;;;;;;32.62;20.08;98344.50;5056493;28;20048;-88
2021/06/09 02:50:33;;;;;;;1.90;1.10;;;;;;;32.82;19.96;98343.81;5059314;28;20056;-88
2021/06/09 02:53:18;;;;;;;2.35;1.40;;;;;;;33.07;19.41;98341.22;5063312;28;20024;-88
2021/06/09 02:56:12;;;;;;;1.80;1.48;;;;;;;33.33;19.09;98342.22;5055692;28;20036;-88
2021/06/09 02:58:53;;;;;;;3.42;1.67;;;;;;;33.32;19.22;98351.25;5064208;28;20028;-87
2021/06/09 03:01:46;;;;;;;1.70;1.48;;;;;;;32.82;19.96;98350.31;5061442;28;20075;-87
2021/06/09 03:04:37;;;;;;;2.33;1.58;;;;;;;33.02;19.63;98356.16;5061125;28;20116;-87
2021/06/09 03:07:10;;;;;;;1.27;1.13;;;;;;;32.96;19.48;98348.75;5056076;28;20509;-88
2021/06/09 03:10:15;;;;;;;2.38;2.17;;;;;;;33.01;20.05;98354.59;5067294;28;20029;-88
2021/06/09 03:12:53;;;;;;;1.77;1.17;;;;;;;33.20;19.46;98346.66;5056059;28;20059;-87
2021/06/09 03:15:29;;;;;;;2.17;1.63;;;;;;;33.36;19.43;98344.09;5070208;28;20032;-88
2021/06/09 03:18:05;;;;;;;2.35;1.38;;;;;;;33.53;19.52;98343.63;5074414;28;20075;-87
2021/06/09 03:20:56;;;;;;;2.38;1.60;;;;;;;33.25;20.50;98348.81;5055978;28;20044;-87
2021/06/09 03:23:50;;;;;;;2.13;1.75;;;;;;;32.86;20.13;98353.72;5061955;28;20028;-88
2021/06/09 03:26:46;;;;;;;1.85;1.33;;;;;;;33.06;20.07;98353.91;5061974;28;20028;-87
2021/06/09 03:29:18;;;;;;;1.92;1.08;;;;;;;33.68;19.21;98356.56;5072911;28;20032;-88
2021/06/09 03:31:52;;;;;;;1.65;1.27;;;;;;;33.90;19.21;98365.47;5060170;28;20170;-88
2021/06/09 03:34:29;;;;;;;1.80;1.10;;;;;;;34.50;19.64;98375.38;5067769;28;20031;-88
2021/06/09 03:36:59;;;;;;;3.00;1.90;;;;;;;35.10;18.48;98371.75;5056513;28;20031;-88
2021/06/09 03:39:26;;;;;;;1.67;1.30;;;;;;;35.37;19.13;98368.38;5067122;28;20042;-88
2021/06/09 03:42:01;;;;;;;1.98;1.60;;;;;;;35.56;18.82;98375.34;5061662;28;20032;-89
2021/06/09 03:44:38;;;;;;;3.33;1.63;;;;;;;35.82;18.30;98372.44;5055424;28;20044;-88
2021/06/09 03:47:06;;;;;;;2.58;1.80;;;;;;;35.67;18.52;98364.00;5068936;28;20067;-88
2021/06/09 03:49:34;;;;;;;3.30;1.92;;;;;;;35.21;19.31;98369.00;5063552;28;20029;-88
2021/06/09 03:52:00;;;;;;;2.30;1.60;;;;;;;35.17;19.77;98368.47;5060044;28;20033;-88
2021/06/09 03:54:30;;;;;;;2.92;2.20;;;;;;;35.37;19.82;98374.09;5063202;28;20119;-88
2021/06/09 03:56:58;;;;;;;1.83;1.63;;;;;;;35.43;20.15;98375.72;5055807;28;20036;-88
2021/06/09 03:59:25;;;;;;;2.30;2.10;;;;;;;35.63;19.06;98376.94;5053476;28;20045;-89
2021/06/09 04:01:52;;;;;;;2.83;2.13;;;;;;;35.60;18.72;98370.19;5065875;28;20025;-89
2021/06/09 04:04:21;;;;;;;2.38;2.17;;;;;;;35.61;18.51;98380.31;5059150;28;20536;-88
2021/06/09 04:06:51;;;;;;;3.33;2.13;;;;;;;35.99;18.56;98382.72;5063216;28;20026;-88
2021/06/09 04:09:22;;;;;;;3.67;2.25;;;;;;;36.39;18.60;98375.16;5061552;28;20047;-89
2021/06/09 04:12:01;;;;;;;2.33;1.83;;;;;;;36.80;18.38;98375.63;5070606;28;20059;-89
2021/06/09 04:14:40;;;;;;;3.40;2.45;;;;;;;36.96;18.31;98378.59;5065576;28;20037;-89
2021/06/09 04:17:07;;;;;;;3.60;2.58;;;;;;;36.66;19.18;98383.94;5065177;28;20056;-88
2021/06/09 04:19:42;;;;;;;2.38;2.13;;;;;;;36.54;19.43;98378.66;5061361;28;20055;-89
2021/06/09 04:22:09;;;;;;;3.08;2.08;;;;;;;36.84;19.33;98381.88;5061370;28;20032;-89
2021/06/09 04:24:40;;;;;;;3.95;2.45;;;;;;;37.01;19.49;98385.63;5058466;28;20102;-89
2021/06/09 04:27:22;;;;;;;3.88;3.03;;;;;;;37.00;19.18;98381.97;5067408;28;20056;-89
2021/06/09 04:29:50;;;;;;;3.45;2.53;;;;;;;36.96;19.03;98384.31;5057780;28;20079;-89
2021/06/09 04:32:16;;;;;;;2.90;2.47;;;;;;;37.15;18.95;98381.75;5066177;28;20024;-87
2021/06/09 04:34:49;;;;;;;2.10;1.90;;;;;;;37.57;18.52;98381.59;5065402;28;20066;-87
2021/06/09 04:37:18;;;;;;;2.40;2.20;;;;;;;37.93;17.83;98377.69;5061657;28;20035;-87
2021/06/09 04:39:46;;;;;;;2.78;2.22;;;;;;;37.88;17.23;98383.44;5056029;28;20035;-87
2021/06/09 04:42:13;;;;;;;2.28;2.00;;;;;;;38.07;17.57;98378.69;5064970;28;20024;-87
2021/06/09 04:44:42;;;;;;;2.55;1.60;;;;;;;38.16;17.11;98383.41;5062491;28;20104;-87
2021/06/09 04:47:10;;;;;;;2.28;1.60;;;;;;;37.62;17.70;98377.16;5060178;28;20040;-87
2021/06/09 04:49:38;;;;;;;2.83;1.90;;;;;;;37.14;17.73;98383.84;5062616;28;20154;-87
2021/06/09 04:52:06;;;;;;;2.40;1.80;;;;;;;36.95;18.66;98399.13;5069893;28;20041;-88
2021/06/09 04:54:32;;;;;;;1.85;1.48;;;;;;;37.42;18.43;98383.91;5070668;28;20033;-87
2021/06/09 04:56:59;;;;;;;3.17;1.70;;;;;;;38.07;18.45;98393.03;5056879;28;20043;-87
2021/06/09 04:59:25;;;;;;;1.17;1.08;;;;;;;38.47;17.79;98378.13;5072345;28;20043;-87
2021/06/09 05:01:51;;;;;;;1.55;1.33;;;;;;;38.75;17.07;98377.25;5067913;28;20170;-88
2021/06/09 05:04:17;;;;;;;2.78;1.67;;;;;;;38.91;17.36;98373.53;5058793;28;20392;-88
2021/06/09 05:06:44;;;;;;;2.88;1.30;;;;;;;39.06;16.90;98379.72;5060338;28;20102;-88
2021/06/09 05:09:11;;;;;;;1.88;1.27;;;;;;;38.83;16.63;98384.03;5064624;28;20392;-87
2021/06/09 05:11:58;;;;;;;1.75;1.27;;;;;;;39.00;17.30;98381.84;5058613;28;20029;-86
2021/06/09 05:14:30;;;;;;;4.45;1.50;;;;;;;39.35;16.92;98390.56;5053747;28;20037;-87
2021/06/09 05:16:58;;;;;;;2.15;1.45;;;;;;;39.19;16.53;98385.66;5056984;28;20028;-85
2021/06/09 05:19:28;;;;;;;1.95;1.10;;;;;;;39.20;17.47;98385.16;5060818;28;20057;-87
2021/06/09 05:22:10;;;;;;;1.40;1.30;;;;;;;39.02;17.17;98384.97;5063109;28;20028;-86
2021/06/09 05:24:38;;;;;;;1.20;1.10;;;;;;;39.26;17.21;98393.72;5062023;28;20029;-84
2021/06/09 05:27:05;;;;;;;1.38;0.93;;;;;;;39.34;17.36;98386.09;5055971;28;20033;-88
2021/06/09 05:29:33;;;;;;;2.58;1.70;;;;;;;39.57;16.91;98390.38;5059617;28;20203;-85
2021/06/09 05:31:59;;;;;;;1.30;1.10;;;;;;;39.71;16.40;98395.00;5054278;28;20157;-86
2021/06/09 05:34:26;;;;;;;2.35;1.33;;;;;;;39.43;16.79;98397.28;5062169;28;20033;-83
2021/06/09 05:36:52;;;;;;;1.20;1.10;;;;;;;39.42;17.62;98397.81;5056817;28;20177;-86
2021/06/09 05:39:19;;;;;;;2.20;1.23;;;;;;;39.45;16.89;98394.63;5059771;28;20086;-85
2021/06/09 05:41:46;;;;;;;1.42;1.30;;;;;;;39.16;16.61;98398.25;5067962;28;20036;-85
2021/06/09 05:44:17;;;;;;;3.28;1.35;;;;;;;39.05;17.17;98396.16;5060455;28;20047;-85
2021/06/09 05:46:44;;;;;;;1.17;1.08;;;;;;;39.43;17.23;98385.78;5053505;28;20033;-85
2021/06/09 05:49:23;;;;;;;1.30;1.13;;;;;;;39.62;16.97;98391.66;5062376;28;20047;-85
2021/06/09 05:51:50;;;;;;;2.67;1.10;;;;;;;39.88;16.68;98384.16;5061854;28;20393;-86
2021/06/09 05:54:17;;;;;;;2.33;1.33;;;;;;;39.89;16.77;98390.66;5066947;28;20032;-85
2021/06/09 05:56:44;;;;;;;1.80;1.20;;;;;;;39.81;16.75;98390.47;5067047;28;20028;-86
2021/06/09 05:59:13;;;;;;;1.55;1.00;;;;;;;39.94;17.04;98392.69;5061726;28;20036;-86
2021/06/09 06:01:40;;;;;;;2.45;1.00;;;;;;;39.77;16.69;98392.84;5055543;28;20048;-85
2021/06/09 06:04:08;;;;;;;2.58;1.25;;;;;;;39.91;17.29;98391.69;5065308;28;20071;-85
2021/06/09 06:06:35;;;;;;;2.22;1.20;;;;;;;39.93;17.04;98397.66;5059306;28;20098;-86
2021/06/09 06:09:02;;;;;;;2.80;1.27;;;;;;;39.83;16.87;98396.47;5060881;28;20029;-85
2021/06/09 06:11:29;;;;;;;1.55;1.25;;;;;;;39.04;17.74;98400.38;5060897;28;20029;-85
2021/06/09 06:13:55;;;;;;;2.13;1.35;;;;;;;38.84;17.59;98397.06;5065604;28;20042;-85
2021/06/09 06:16:22;;;;;;;1.65;1.55;;;;;;;38.57;17.40;98401.56;5057267;28;20111;-85
2021/06/09 06:18:50;;;;;;;2.55;2.08;;;;;;;38.22;17.63;98407.09;5059082;28;20045;-85
2021/06/09 06:21:18;;;;;;;2.20;1.73;;;;;;;37.94;18.46;98404.28;5059218;28;20534;-86
2021/06/09 06:23:45;;;;;;;2.53;1.60;;;;;;;38.43;18.17;98399.78;5059415;28;20079;-85
2021/06/09 06:26:14;;;;;;;3.50;2.15;;;;;;;38.87;17.65;98401.75;5065826;28;20025;-86
2021/06/09 06:28:41;;;;;;;2.25;1.50;;;;;;;39.16;17.31;98410.50;5068192;28;20056;-87
2021/06/09 06:31:14;;;;;;;2.75;2.20;;;;;;;38.26;17.83;98408.41;5055545;28;20108;-86
2021/06/09 06:33:42;;;;;;;1.98;1.55;;;;;;;38.30;18.82;98406.06;5061538;28;20530;-86
2021/06/09 06:36:09;;;;;;;4.70;1.92;;;;;;;38.22;18.89;98407.09;5057240;28;20429;-86
2021/06/09 06:38:37;;;;;;;1.90;1.67;;;;;;;38.45;18.74;98412.31;5061090;28;20033;-86
2021/06/09 06:41:05;;;;;;;2.75;1.73;;;;;;;39.10;18.22;98408.94;5063573;28;20028;-86
2021/06/09 06:43:32;;;;;;;2.97;1.60;;;;;;;39.61;17.25;98413.88;5064560;28;20074;-87
2021/06/09 06:45:58;;;;;;;3.78;1.52;;;;;;;39.85;16.43;98402.47;5065184;28;20028;-87
2021/06/09 06:48:25;;;;;;;1.73;1.60;;;;;;;39.81;16.97;98409.81;5068142;28;20032;-87
2021/06/09 06:50:52;;;;;;;6.72;1.95;;;;;;;39.60;17.00;98412.34;5065793;28;20029;-87
2021/06/09 06:53:18;;;;;;;1.92;1.77;;;;;;;39.27;18.38;98406.78;5063362;28;20045;-87
2021/06/09 06:55:44;;;;;;;3.08;2.25;;;;;;;39.07;17.13;98416.50;5076151;28;20036;-87
2021/06/09 06:58:11;;;;;;;1.88;1.45;;;;;;;38.40;17.58;98409.44;5070532;28;20492;-87
2021/06/09 07:00:38;;;;;;;2.45;1.90;;;;;;;38.23;18.22;98423.78;5063521;28;20055;-87
2021/06/09 07:03:08;;;;;;;2.88;2.00;;;;;;;37.99;18.25;98414.97;5071255;28;20115;-87
2021/06/09 07:05:35;;;;;;;2.38;1.80;;;;;;;37.73;18.21;98417.28;5056677;28;20056;-87
2021/06/09 07:08:02;;;;;;;2.33;2.13;;;;;;;37.38;18.59;98421.41;5058438;28;20393;-88
2021/06/09 07:10:29;;;;;;;2.15;2.00;;;;;;;37.38;18.93;98421.41;5069500;28;20040;-87
2021/06/09 07:13:01;;;;;;;2.40;2.20;;;;;;;36.06;20.41;98422.28;5059867;28;20021;-87
2021/06/09 07:15:28;;;;;;;2.65;2.33;;;;;;;36.14;20.66;98428.31;5063144;28;20040;-87
2021/06/09 07:17:57;;;;;;;2.63;2.15;;;;;;;37.27;19.90;98420.59;5070371;28;20458;-87
2021/06/09 07:20:26;;;;;;;1.70;1.60;;;;;;;37.76;18.94;98419.13;5059586;28;20045;-87
2021/06/09 07:22:55;;;;;;;2.10;1.67;;;;;;;38.49;18.29;98424.28;5067643;28;20040;-87
2021/06/09 07:25:22;;;;;;;1.83;1.70;;;;;;;37.60;19.80;98419.88;5074773;28;20036;-86
2021/06/09 07:27:52;;;;;;;2.25;2.05;;;;;;;37.45;19.45;98419.34;5065011;28;20422;-87
2021/06/09 07:30:20;;;;;;;3.95;2.17;;;;;;;37.57;19.48;98424.56;5067480;28;20086;-88
2021/06/09 07:32:48;;;;;;;2.60;1.85;;;;;;;37.87;19.28;98422.00;5058134;28;20044;-87
2021/06/09 07:35:16;;;;;;;3.25;2.95;;;;;;;37.65;19.14;98421.97;5059361;28;20041;-87
2021/06/09 07:37:45;;;;;;;4.80;1.83;;;;;;;37.97;19.14;98424.06;5076224;28;20522;-87
2021/06/09 07:40:24;;;;;;;2.35;2.15;;;;;;;37.71;18.80;98432.16;5071790;28;20488;-87
2021/06/09 07:42:53;;;;;;;1.70;1.60;;;;;;;37.00;18.90;98438.44;5075007;28;20519;-87
2021/06/09 07:45:22;;;;;;;4.38;2.17;;;;;;;37.19;19.44;98434.63;5064162;28;20029;-86
2021/06/09 07:47:50;;;;;;;3.47;2.35;;;;;;;37.07;19.09;98433.03;5065162;28;20076;-86
2021/06/09 07:50:26;;;;;;;3.92;2.47;;;;;;;37.49;19.06;98428.44;5064145;28;20063;-86
2021/06/09 07:52:56;;;;;;;4.70;2.10;;;;;;;37.87;18.41;98422.00;5075812;28;20039;-86
2021/06/09 07:55:23;;;;;;;5.60;2.35;;;;;;;37.37;18.40;98424.78;5071023;28;20033;-87
2021/06/09 07:57:51;;;;;;;2.92;2.15;;;;;;;37.42;19.02;98426.09;5075496;28;20024;-87
2021/06/09 08:00:18;;;;;;;3.70;2.33;;;;;;;37.83;18.90;98430.84;5074598;28;20061;-86
2021/06/09 08:02:44;;;;;;;1.83;1.63;;;;;;;38.80;17.80;98433.88;5060992;28;20104;-86
2021/06/09 08:05:12;;;;;;;1.83;1.73;;;;;;;38.67;17.81;98428.69;5056745;28;20436;-87
2021/06/09 08:07:41;;;;;;;3.78;2.13;;;;;;;39.07;17.80;98433.75;5056396;28;20067;-84
2021/06/09 08:10:09;;;;;;;2.30;2.05;;;;;;;38.83;17.13;98424.22;5056580;28;20428;-86
2021/06/09 08:12:37;;;;;;;2.03;1.83;;;;;;;38.23;18.27;98428.78;5070246;28;20033;-86
2021/06/09 08:15:06;;;;;;;1.95;1.75;;;;;;;38.19;18.45;98431.88;5074730;28;20036;-86
2021/06/09 08:17:32;;;;;;;1.85;1.55;;;;;;;37.09;19.47;98432.50;5073262;28;20068;-86
2021/06/09 08:19:58;;;;;;;2.47;2.25;;;;;;;37.23;20.06;98428.63;5059542;28;20068;-85
2021/06/09 08:22:24;;;;;;;3.15;2.17;;;;;;;37.86;18.96;98424.09;5063491;28;20032;-86
2021/06/09 08:24:50;;;;;;;2.10;1.65;;;;;;;37.00;19.72;98432.72;5064404;28;20025;-87
2021/06/09 08:27:17;;;;;;;3.25;1.85;;;;;;;36.15;20.42;98435.59;5072509;28;20085;-88
2021/06/09 08:29:43;;;;;;;4.28;2.70;;;;;;;36.48;20.14;98430.09;5062574;28;20045;-86
2021/06/09 08:32:09;;;;;;;2.80;2.33;;;;;;;38.02;18.70;98423.28;5055021;28;20021;-86
2021/06/09 08:34:36;;;;;;;5.10;2.28;;;;;;;38.88;18.57;98429.94;5059701;28;20086;-86
2021/06/09 08:37:02;;;;;;;4.10;2.67;;;;;;;39.09;19.08;98425.41;5071771;28;20497;-86
2021/06/09 08:39:28;;;;;;;2.70;2.15;;;;;;;38.96;17.59;98424.41;5064609;28;20043;-86
2021/06/09 08:41:56;;;;;;;2.55;1.58;;;;;;;38.42;18.48;98433.44;5078902;28;20037;-86
2021/06/09 08:44:23;;;;;;;3.20;2.10;;;;;;;35.95;20.78;98436.47;5074900;28;20029;-87
2021/06/09 08:46:51;;;;;;;3.10;2.45;;;;;;;36.00;20.73;98432.91;5061295;28;20029;-86
2021/06/09 08:49:17;;;;;;;2.90;2.00;;;;;;;36.41;20.73;98435.53;5067608;28;20138;-86
2021/06/09 08:51:44;;;;;;;3.63;2.63;;;;;;;36.53;19.65;98428.56;5074332;28;20025;-85
2021/06/09 08:54:10;;;;;;;4.18;2.60;;;;;;;37.22;20.26;98430.72;5065394;28;20036;-85
2021/06/09 08:56:38;;;;;;;2.00;1.90;;;;;;;36.39;20.55;98433.16;5059527;28;20021;-85
2021/06/09 08:59:05;;;;;;;3.35;1.70;;;;;;;35.60;21.40;98432.25;5060909;28;20436;-86
2021/06/09 09:01:33;;;;;;;2.50;2.00;;;;;;;36.15;20.99;98431.97;5060567;28;20037;-86
2021/06/09 09:04:01;;;;;;;2.17;1.98;;;;;;;37.23;19.88;98432.28;5062386;28;20029;-85
2021/06/09 09:06:28;;;;;;;2.13;2.00;;;;;;;37.76;19.48;98430.59;5063820;28;20488;-86
2021/06/09 09:08:54;;;;;;;3.53;1.85;;;;;;;37.83;19.90;98427.22;5058262;28;20048;-85
2021/06/09 09:11:22;;;;;;;3.25;1.65;;;;;;;37.91;18.60;98429.03;5066608;28;20082;-86
2021/06/09 09:13:48;;;;;;;1.95;1.80;;;;;;;37.57;19.77;98423.78;5054582;28;20157;-85
2021/06/09 09:16:14;;;;;;;2.45;1.38;;;;;;;36.89;20.59;98436.31;5061086;28;20102;-86
2021/06/09 09:18:46;;;;;;;2.67;2.30;;;;;;;36.23;20.78;98433.81;5061628;28;20044;-85
2021/06/09 09:21:14;;;;;;;2.03;1.63;;;;;;;36.53;20.68;98437.94;5072848;28;20112;-85
2021/06/09 09:23:49;;;;;;;1.60;1.35;;;;;;;37.26;20.15;98430.47;5071404;28;20568;-85
2021/06/09 09:26:32;;;;;;;2.53;1.80;;;;;;;37.31;20.52;98435.44;5070826;28;20040;-86
2021/06/09 09:29:20;;;;;;;2.90;1.85;;;;;;;37.14;20.11;98434.59;5056086;28;20047;-85
2021/06/09 09:32:03;;;;;;;2.67;1.38;;;;;;;37.36;20.08;98428.94;5062075;28;20060;-86
2021/06/09 09:34:34;;;;;;;2.97;1.10;;;;;;;38.37;19.61;98424.88;5064342;28;20480;-86
2021/06/09 09:37:09;;;;;;;1.55;1.45;;;;;;;37.61;19.04;98424.31;5071683;28;20032;-86
2021/06/09 09:39:39;;;;;;;1.50;1.40;;;;;;;35.82;20.79;98430.38;5052113;28;20079;-85
2021/06/09 09:42:29;;;;;;;3.22;1.20;;;;;;;35.83;20.63;98417.66;5069006;28;20037;-87
2021/06/09 09:45:15;;;;;;;3.05;1.23;;;;;;;37.04;18.15;98421.81;5061641;28;20039;-86
2021/06/09 09:47:41;;;;;;;2.53;1.75;;;;;;;37.35;19.65;98422.41;5055330;28;20478;-87
2021/06/09 09:50:08;;;;;;;1.67;1.58;;;;;;;37.70;19.67;98412.59;5056967;28;20040;-86
2021/06/09 09:52:48;;;;;;;1.73;0.90;;;;;;;38.49;19.19;98409.94;5057792;28;20040;-87
2021/06/09 09:55:14;;;;;;;4.63;1.00;;;;;;;39.28;17.84;98399.75;5067477;28;20107;-87
2021/06/09 09:57:41;;;;;;;1.27;1.17;;;;;;;39.13;17.65;98394.31;5053132;28;20086;-86
2021/06/09 10:00:08;;;;;;;1.00;0.80;;;;;;;39.89;17.27;98399.28;5069501;28;20124;-87
2021/06/09 10:02:35;;;;;;;0.85;0.70;;;;;;;39.08;15.81;98400.84;5062085;28;20112;-86
2021/06/09 10:05:13;;;;;;;0.80;0.80;;;;;;;36.25;16.63;98407.56;5064450;28;20029;-86
2021/06/09 10:07:59;;;;;;;0.85;0.85;;;;;;;35.60;19.27;98403.66;5067547;28;20443;-86
2021/06/09 10:10:26;;;;;;;0.60;0.60;;;;;;;34.56;20.43;98410.50;5057281;28;20077;-86
2021/06/09 10:13:15;;;;;;;1.15;1.00;;;;;;;34.35;20.29;98401.13;5063218;28;20393;-88
2021/06/09 10:15:48;;;;;;;1.08;0.80;;;;;;;35.54;19.27;98395.06;5065451;28;20396;-86
2021/06/09 10:18:20;;;;;;;1.20;0.93;;;;;;;35.69;19.12;98395.72;5065103;28;20033;-87
2021/06/09 10:20:50;;;;;;;0.98;0.80;;;;;;;34.95;18.71;98393.88;5057628;28;20049;-87
2021/06/09 10:23:38;;;;;;;2.43;0.70;;;;;;;36.09;18.70;98397.59;5064912;28;20085;-87
2021/06/09 10:26:14;;;;;;;0.60;0.60;;;;;;;36.42;18.54;98402.75;5060790;28;20032;-87
2021/06/09 10:29:08;;;;;;;0.60;0.60;;;;;;;36.49;17.70;98400.22;5063551;28;20492;-87
2021/06/09 10:31:37;;;;;;;2.28;0.65;;;;;;;37.32;18.46;98403.41;5054285;28;20068;-86
2021/06/09 10:34:05;;;;;;;0.52;0.43;;;;;;;37.99;17.33;98394.91;5060761;28;20021;-86
2021/06/09 10:36:34;;;;;;;3.22;0.77;;;;;;;37.99;18.25;98394.91;5063346;28;20029;-86
2021/06/09 10:39:01;;;;;;;0.60;0.60;;;;;;;37.55;17.24;98392.78;5052856;28;20025;-86
2021/06/09 10:41:28;;;;;;;0.70;0.70;;;;;;;37.30;17.74;98390.88;5066343;28;20082;-86
2021/06/09 10:44:02;;;;;;;1.13;0.80;;;;;;;36.84;16.74;98387.63;5066226;28;20127;-86
2021/06/09 10:46:30;;;;;;;2.35;0.80;;;;;;;36.24;17.83;98386.78;5053519;28;20511;-87
2021/06/09 10:48:59;;;;;;;0.38;0.38;;;;;;;37.11;18.34;98379.13;5067967;28;20052;-87
2021/06/09 10:51:27;;;;;;;0.63;0.50;;;;;;;38.38;16.20;98387.03;5061580;28;20086;-87
2021/06/09 10:53:53;;;;;;;0.60;0.60;;;;;;;36.03;17.04;98385.34;5056374;28;20025;-87
2021/06/09 10:56:22;;;;;;;1.83;0.88;;;;;;;36.83;16.61;98380.34;5067264;28;20033;-87
2021/06/09 10:58:49;;;;;;;0.40;0.40;;;;;;;38.27;15.54;98375.59;5059186;28;20504;-87
2021/06/09 11:01:15;;;;;;;0.40;0.40;;;;;;;39.41;16.33;98368.28;5066707;28;20040;-87
2021/06/09 11:03:45;;;;;;;1.48;0.60;;;;;;;39.16;14.25;98369.50;5060811;28;20021;-87
2021/06/09 11:06:12;;;;;;;1.73;0.60;;;;;;;39.14;15.13;98366.38;5050236;28;20090;-87
2021/06/09 11:08:39;;;;;;;1.27;0.60;;;;;;;37.88;15.44;98364.13;5058268;28;20064;-87
2021/06/09 11:11:18;;;;;;;0.60;0.60;;;;;;;37.25;14.53;98378.13;5056711;28;20112;-87
2021/06/09 11:13:47;;;;;;;0.45;0.45;;;;;;;37.73;15.04;98360.75;5062941;28;20045;-91
2021/06/09 11:16:17;;;;;;;0.98;0.80;;;;;;;37.55;15.87;98364.13;5069889;28;20024;-94
2021/06/09 11:18:47;;;;;;;0.75;0.70;;;;;;;38.52;14.50;98356.44;5060862;28;20049;-92
2021/06/09 11:21:24;;;;;;;0.47;0.47;;;;;;;36.64;16.40;98357.13;5060420;28;20051;-91
2021/06/09 11:23:50;;;;;;;0.60;0.60;;;;;;;37.05;15.40;98357.53;5066440;28;20029;-91
2021/06/09 11:26:30;;;;;;;0.50;0.50;;;;;;;35.98;16.10;98366.88;5061410;28;20104;-90
2021/06/09 11:28:56;;;;;;;1.63;0.50;;;;;;;35.96;16.58;98366.56;5063270;28;20111;-93
2021/06/09 11:31:28;;;;;;;0.70;0.70;;;;;;;35.16;17.34;98358.31;5067661;28;20041;-95
2021/06/09 11:34:03;;;;;;;2.35;0.60;;;;;;;37.00;16.22;98355.41;5056282;28;20119;-91
2021/06/09 11:36:34;;;;;;;0.70;0.68;;;;;;;37.81;15.20;98343.81;5055447;28;20029;-92
2021/06/09 11:39:22;;;;;;;1.80;0.70;;;;;;;38.53;13.49;98340.81;5059377;28;20396;-91
2021/06/09 11:41:50;;;;;;;0.73;0.52;;;;;;;37.13;14.76;98342.16;5054678;28;20609;-92
2021/06/09 11:44:27;;;;;;;0.65;0.65;;;;;;;35.04;15.55;98348.84;5058065;28;20027;-91
2021/06/09 11:47:13;;;;;;;0.50;0.50;;;;;;;35.64;16.66;98347.09;5066002;28;20516;-91
2021/06/09 11:49:39;;;;;;;0.50;0.50;;;;;;;36.99;13.95;98337.47;5068595;28;20032;-90